Ledbetter, Texas
Current Conditions -  °F | °C
As of 3:55 AM on Sunday 23 Nov 2014 (Local Time) from KGYB Reporting Station
Overcast Overcast  
Wind Chill: 59°   Ceiling: 400
Heat Index: 59°   Visibility: 10mi
Dew Point: 58°   Wind: 5mph
Humidity: 97%   Direction: 220°SW
Pressure: 29.71"   Gusts: NA
Location:  30.15°N, 96.79°W
Report Text: KGYB 230955Z AUTO 22004KT 10SM BKN004 OVC010 15/15 A2971 RMK AO2 T01510146
Loading
Personal Weather Stations






























Interactive Weather Map New forecast layout! Learn more

10-Day Weather Forecast

Advertisements
Track Severe Weather on mobile